Terminal Aerodrome Forecast
Issued by NWS Green Bay, WI

Home | Current Version | Previous Version | Text Only | Print | Product List | Glossary Off
Versions: 1 2 3 4 5 6 7 8 9 10 11 12 13 14 15 16 17 18 19 20 21 22 23 24 25 26 27 28 29 30 31 32 33 34 35 36 37 38 39 40

000
FTUS43 KGRB 221555 AAB
TAFGRB
TAF AMD
KGRB 221555Z 2216/2312 21008G17KT P6SM SCT070 BKN120
     FM221700 24010G19KT P6SM SCT040 BKN250
      TEMPO 2217/2221 3SM TSRA BKN040CB
     FM222300 33005KT 6SM -SHRA SCT030 BKN045
      TEMPO 2301/2304 3SM +TSRA BKN020CB
     FM230400 35004KT 5SM BR SCT020 BKN070=

USA.gov is the U.S. government's official web portal to all federal, state and local government web resources and services.